sensor_id;sensor_type;location;lat;lon;timestamp;P1;durP1;ratioP1;P2;durP2;ratioP2
51288;SDS011;37372;52.294;5.152;2022-09-24T00:01:11;35.50;;;23.48;;
51288;SDS011;37372;52.294;5.152;2022-09-24T00:03:42;31.25;;;21.52;;
51288;SDS011;37372;52.294;5.152;2022-09-24T00:06:10;35.17;;;22.65;;
51288;SDS011;37372;52.294;5.152;2022-09-24T00:08:38;39.03;;;25.25;;
51288;SDS011;37372;52.294;5.152;2022-09-24T00:11:04;33.88;;;22.40;;
51288;SDS011;37372;52.294;5.152;2022-09-24T00:13:31;37.50;;;25.95;;
51288;SDS011;37372;52.294;5.152;2022-09-24T00:16:02;36.22;;;23.15;;
51288;SDS011;37372;52.294;5.152;2022-09-24T00:18:31;34.22;;;21.95;;
51288;SDS011;37372;52.294;5.152;2022-09-24T00:20:56;27.30;;;19.75;;
51288;SDS011;37372;52.294;5.152;2022-09-24T00:23:22;29.08;;;19.42;;
51288;SDS011;37372;52.294;5.152;2022-09-24T00:25:47;27.10;;;19.05;;
51288;SDS011;37372;52.294;5.152;2022-09-24T00:28:31;26.20;;;17.83;;
51288;SDS011;37372;52.294;5.152;2022-09-24T00:30:57;26.33;;;17.13;;
51288;SDS011;37372;52.294;5.152;2022-09-24T00:33:24;29.13;;;18.65;;
51288;SDS011;37372;52.294;5.152;2022-09-24T00:35:52;21.92;;;15.63;;
51288;SDS011;37372;52.294;5.152;2022-09-24T00:38:21;24.35;;;15.95;;
51288;SDS011;37372;52.294;5.152;2022-09-24T00:40:48;21.92;;;15.27;;
51288;SDS011;37372;52.294;5.152;2022-09-24T00:43:30;23.23;;;15.65;;
51288;SDS011;37372;52.294;5.152;2022-09-24T00:46:22;21.55;;;15.27;;
51288;SDS011;37372;52.294;5.152;2022-09-24T00:48:57;21.17;;;14.45;;
51288;SDS011;37372;52.294;5.152;2022-09-24T00:51:26;19.83;;;14.57;;
51288;SDS011;37372;52.294;5.152;2022-09-24T00:53:56;20.95;;;14.30;;
51288;SDS011;37372;52.294;5.152;2022-09-24T00:56:25;20.92;;;14.88;;
51288;SDS011;37372;52.294;5.152;2022-09-24T00:58:52;19.50;;;13.82;;
51288;SDS011;37372;52.294;5.152;2022-09-24T01:01:20;20.48;;;14.38;;
51288;SDS011;37372;52.294;5.152;2022-09-24T01:03:47;18.50;;;13.73;;
51288;SDS011;37372;52.294;5.152;2022-09-24T01:06:14;21.77;;;12.95;;
51288;SDS011;37372;52.294;5.152;2022-09-24T01:08:40;18.35;;;13.00;;
51288;SDS011;37372;52.294;5.152;2022-09-24T01:11:09;18.77;;;13.85;;
51288;SDS011;37372;52.294;5.152;2022-09-24T01:19:22;18.17;;;12.95;;
51288;SDS011;37372;52.294;5.152;2022-09-24T01:22:05;17.17;;;13.15;;
51288;SDS011;37372;52.294;5.152;2022-09-24T01:24:57;17.20;;;12.30;;
51288;SDS011;37372;52.294;5.152;2022-09-24T01:27:41;18.65;;;13.23;;
51288;SDS011;37372;52.294;5.152;2022-09-24T01:30:29;18.63;;;12.75;;
51288;SDS011;37372;52.294;5.152;2022-09-24T01:32:59;19.48;;;14.05;;
51288;SDS011;37372;52.294;5.152;2022-09-24T01:35:33;22.27;;;14.00;;
51288;SDS011;37372;52.294;5.152;2022-09-24T01:41:03;20.90;;;14.10;;
51288;SDS011;37372;52.294;5.152;2022-09-24T01:43:31;21.73;;;14.55;;
51288;SDS011;37372;52.294;5.152;2022-09-24T01:45:59;18.33;;;12.93;;
51288;SDS011;37372;52.294;5.152;2022-09-24T01:48:27;20.02;;;14.63;;
51288;SDS011;37372;52.294;5.152;2022-09-24T01:53:39;25.52;;;14.98;;
51288;SDS011;37372;52.294;5.152;2022-09-24T01:56:18;18.88;;;12.95;;
51288;SDS011;37372;52.294;5.152;2022-09-24T01:58:50;23.75;;;14.95;;
51288;SDS011;37372;52.294;5.152;2022-09-24T02:01:20;22.20;;;15.65;;
51288;SDS011;37372;52.294;5.152;2022-09-24T02:03:54;21.83;;;15.50;;
51288;SDS011;37372;52.294;5.152;2022-09-24T02:06:24;21.05;;;13.77;;
51288;SDS011;37372;52.294;5.152;2022-09-24T02:08:55;24.10;;;15.15;;
51288;SDS011;37372;52.294;5.152;2022-09-24T02:11:22;23.83;;;15.65;;
51288;SDS011;37372;52.294;5.152;2022-09-24T02:13:58;22.63;;;15.20;;
51288;SDS011;37372;52.294;5.152;2022-09-24T02:16:33;22.33;;;16.30;;
51288;SDS011;37372;52.294;5.152;2022-09-24T02:19:03;24.05;;;15.75;;
51288;SDS011;37372;52.294;5.152;2022-09-24T02:21:30;25.58;;;17.83;;
51288;SDS011;37372;52.294;5.152;2022-09-24T02:24:05;26.48;;;17.95;;
51288;SDS011;37372;52.294;5.152;2022-09-24T02:26:35;24.67;;;16.48;;
51288;SDS011;37372;52.294;5.152;2022-09-24T02:29:01;28.15;;;18.77;;
51288;SDS011;37372;52.294;5.152;2022-09-24T02:31:30;27.55;;;18.30;;
51288;SDS011;37372;52.294;5.152;2022-09-24T02:34:00;29.42;;;19.75;;
51288;SDS011;37372;52.294;5.152;2022-09-24T02:36:48;29.33;;;19.17;;
51288;SDS011;37372;52.294;5.152;2022-09-24T02:39:23;29.83;;;19.40;;
51288;SDS011;37372;52.294;5.152;2022-09-24T02:41:48;28.15;;;19.33;;
51288;SDS011;37372;52.294;5.152;2022-09-24T02:44:15;31.77;;;20.13;;
51288;SDS011;37372;52.294;5.152;2022-09-24T02:46:41;26.55;;;18.77;;
51288;SDS011;37372;52.294;5.152;2022-09-24T02:49:08;31.38;;;20.40;;
51288;SDS011;37372;52.294;5.152;2022-09-24T02:51:34;30.80;;;20.35;;
51288;SDS011;37372;52.294;5.152;2022-09-24T02:54:00;34.10;;;20.45;;
51288;SDS011;37372;52.294;5.152;2022-09-24T02:56:26;34.05;;;20.23;;
51288;SDS011;37372;52.294;5.152;2022-09-24T02:58:52;33.17;;;20.45;;
51288;SDS011;37372;52.294;5.152;2022-09-24T03:01:18;33.92;;;20.80;;
51288;SDS011;37372;52.294;5.152;2022-09-24T03:03:44;29.80;;;19.75;;
51288;SDS011;37372;52.294;5.152;2022-09-24T03:06:10;38.05;;;22.02;;
51288;SDS011;37372;52.294;5.152;2022-09-24T03:08:37;33.15;;;22.27;;
51288;SDS011;37372;52.294;5.152;2022-09-24T03:11:03;33.13;;;21.17;;
51288;SDS011;37372;52.294;5.152;2022-09-24T03:13:28;31.40;;;20.25;;
51288;SDS011;37372;52.294;5.152;2022-09-24T03:15:53;35.50;;;21.25;;
51288;SDS011;37372;52.294;5.152;2022-09-24T03:18:19;33.67;;;21.65;;
51288;SDS011;37372;52.294;5.152;2022-09-24T03:20:52;32.42;;;20.90;;
51288;SDS011;37372;52.294;5.152;2022-09-24T03:23:19;34.45;;;21.13;;
51288;SDS011;37372;52.294;5.152;2022-09-24T03:25:44;33.33;;;21.42;;
51288;SDS011;37372;52.294;5.152;2022-09-24T03:28:10;37.45;;;22.95;;
51288;SDS011;37372;52.294;5.152;2022-09-24T03:30:35;36.55;;;23.70;;
51288;SDS011;37372;52.294;5.152;2022-09-24T03:33:19;36.90;;;22.17;;
51288;SDS011;37372;52.294;5.152;2022-09-24T03:35:44;34.75;;;23.38;;
51288;SDS011;37372;52.294;5.152;2022-09-24T03:38:10;41.17;;;24.95;;
51288;SDS011;37372;52.294;5.152;2022-09-24T03:40:35;41.22;;;24.95;;
51288;SDS011;37372;52.294;5.152;2022-09-24T03:43:00;38.95;;;23.35;;
51288;SDS011;37372;52.294;5.152;2022-09-24T03:45:26;37.85;;;24.90;;
51288;SDS011;37372;52.294;5.152;2022-09-24T03:47:51;35.35;;;23.05;;
51288;SDS011;37372;52.294;5.152;2022-09-24T03:50:16;36.08;;;23.92;;
51288;SDS011;37372;52.294;5.152;2022-09-24T03:52:41;41.58;;;25.83;;
51288;SDS011;37372;52.294;5.152;2022-09-24T03:55:07;39.63;;;24.05;;
51288;SDS011;37372;52.294;5.152;2022-09-24T03:57:33;38.90;;;23.35;;
51288;SDS011;37372;52.294;5.152;2022-09-24T03:59:58;44.05;;;25.35;;
51288;SDS011;37372;52.294;5.152;2022-09-24T04:02:23;37.80;;;24.33;;
51288;SDS011;37372;52.294;5.152;2022-09-24T04:04:49;37.22;;;24.30;;
51288;SDS011;37372;52.294;5.152;2022-09-24T04:07:14;37.65;;;24.98;;
51288;SDS011;37372;52.294;5.152;2022-09-24T04:09:39;42.22;;;25.27;;
51288;SDS011;37372;52.294;5.152;2022-09-24T04:12:05;37.88;;;23.38;;
51288;SDS011;37372;52.294;5.152;2022-09-24T04:14:30;41.83;;;23.50;;
51288;SDS011;37372;52.294;5.152;2022-09-24T04:16:56;34.95;;;23.52;;
51288;SDS011;37372;52.294;5.152;2022-09-24T04:19:23;37.05;;;23.52;;
51288;SDS011;37372;52.294;5.152;2022-09-24T04:21:48;38.88;;;23.63;;
51288;SDS011;37372;52.294;5.152;2022-09-24T04:24:13;39.60;;;23.70;;
51288;SDS011;37372;52.294;5.152;2022-09-24T04:26:39;38.30;;;24.30;;
51288;SDS011;37372;52.294;5.152;2022-09-24T04:29:04;40.40;;;24.33;;
51288;SDS011;37372;52.294;5.152;2022-09-24T04:31:32;37.05;;;22.40;;
51288;SDS011;37372;52.294;5.152;2022-09-24T04:33:57;34.75;;;22.25;;
51288;SDS011;37372;52.294;5.152;2022-09-24T04:36:23;35.30;;;21.50;;
51288;SDS011;37372;52.294;5.152;2022-09-24T04:38:49;34.45;;;21.77;;
51288;SDS011;37372;52.294;5.152;2022-09-24T04:41:15;35.90;;;22.80;;
51288;SDS011;37372;52.294;5.152;2022-09-24T04:43:40;36.35;;;21.33;;
51288;SDS011;37372;52.294;5.152;2022-09-24T04:46:06;32.47;;;19.42;;
51288;SDS011;37372;52.294;5.152;2022-09-24T04:48:33;34.80;;;20.02;;
51288;SDS011;37372;52.294;5.152;2022-09-24T04:51:02;32.47;;;19.95;;
51288;SDS011;37372;52.294;5.152;2022-09-24T04:53:30;29.55;;;17.80;;
51288;SDS011;37372;52.294;5.152;2022-09-24T04:55:56;37.92;;;21.52;;
51288;SDS011;37372;52.294;5.152;2022-09-24T04:58:22;36.13;;;21.73;;
51288;SDS011;37372;52.294;5.152;2022-09-24T05:00:48;33.95;;;20.20;;
51288;SDS011;37372;52.294;5.152;2022-09-24T05:03:15;36.65;;;20.52;;
51288;SDS011;37372;52.294;5.152;2022-09-24T05:05:40;34.05;;;19.75;;
51288;SDS011;37372;52.294;5.152;2022-09-24T05:08:06;33.75;;;19.58;;
51288;SDS011;37372;52.294;5.152;2022-09-24T05:10:31;32.38;;;19.85;;
51288;SDS011;37372;52.294;5.152;2022-09-24T05:12:57;30.83;;;17.90;;
51288;SDS011;37372;52.294;5.152;2022-09-24T05:15:23;35.40;;;19.30;;
51288;SDS011;37372;52.294;5.152;2022-09-24T05:17:48;32.10;;;18.35;;
51288;SDS011;37372;52.294;5.152;2022-09-24T05:20:14;37.60;;;19.60;;
51288;SDS011;37372;52.294;5.152;2022-09-24T05:22:44;33.83;;;18.48;;
51288;SDS011;37372;52.294;5.152;2022-09-24T05:25:10;34.58;;;18.48;;
51288;SDS011;37372;52.294;5.152;2022-09-24T05:27:37;30.70;;;17.63;;
51288;SDS011;37372;52.294;5.152;2022-09-24T05:30:08;34.80;;;17.92;;
51288;SDS011;37372;52.294;5.152;2022-09-24T05:32:34;35.00;;;17.48;;
51288;SDS011;37372;52.294;5.152;2022-09-24T05:34:59;32.25;;;17.42;;
51288;SDS011;37372;52.294;5.152;2022-09-24T05:37:25;34.70;;;18.33;;
51288;SDS011;37372;52.294;5.152;2022-09-24T05:39:50;30.92;;;17.38;;
51288;SDS011;37372;52.294;5.152;2022-09-24T05:42:16;32.40;;;17.83;;
51288;SDS011;37372;52.294;5.152;2022-09-24T05:44:41;31.00;;;16.73;;
51288;SDS011;37372;52.294;5.152;2022-09-24T05:47:07;32.80;;;16.80;;
51288;SDS011;37372;52.294;5.152;2022-09-24T05:49:33;29.25;;;16.27;;
51288;SDS011;37372;52.294;5.152;2022-09-24T05:51:59;29.25;;;16.30;;
51288;SDS011;37372;52.294;5.152;2022-09-24T05:54:25;28.88;;;15.13;;
51288;SDS011;37372;52.294;5.152;2022-09-24T05:56:51;29.42;;;14.65;;
51288;SDS011;37372;52.294;5.152;2022-09-24T05:59:16;27.58;;;16.13;;
51288;SDS011;37372;52.294;5.152;2022-09-24T06:01:42;26.70;;;15.00;;
51288;SDS011;37372;52.294;5.152;2022-09-24T06:04:08;25.75;;;14.40;;
51288;SDS011;37372;52.294;5.152;2022-09-24T06:06:34;30.95;;;16.70;;
51288;SDS011;37372;52.294;5.152;2022-09-24T06:08:59;31.23;;;16.00;;
51288;SDS011;37372;52.294;5.152;2022-09-24T06:11:24;28.17;;;15.48;;
51288;SDS011;37372;52.294;5.152;2022-09-24T06:13:52;29.73;;;15.45;;
51288;SDS011;37372;52.294;5.152;2022-09-24T06:16:17;30.40;;;15.80;;
51288;SDS011;37372;52.294;5.152;2022-09-24T06:18:43;31.98;;;16.38;;
51288;SDS011;37372;52.294;5.152;2022-09-24T06:21:15;30.27;;;16.05;;
51288;SDS011;37372;52.294;5.152;2022-09-24T06:23:43;31.10;;;16.17;;
51288;SDS011;37372;52.294;5.152;2022-09-24T06:26:12;27.90;;;15.93;;
51288;SDS011;37372;52.294;5.152;2022-09-24T06:28:38;29.08;;;15.05;;
51288;SDS011;37372;52.294;5.152;2022-09-24T06:31:05;31.15;;;16.60;;
51288;SDS011;37372;52.294;5.152;2022-09-24T06:33:32;30.83;;;17.15;;
51288;SDS011;37372;52.294;5.152;2022-09-24T06:36:01;27.85;;;15.70;;
51288;SDS011;37372;52.294;5.152;2022-09-24T06:38:28;28.92;;;15.75;;
51288;SDS011;37372;52.294;5.152;2022-09-24T06:40:58;30.27;;;16.20;;
51288;SDS011;37372;52.294;5.152;2022-09-24T06:43:25;32.20;;;16.45;;
51288;SDS011;37372;52.294;5.152;2022-09-24T06:45:53;28.23;;;15.30;;
51288;SDS011;37372;52.294;5.152;2022-09-24T06:48:19;26.67;;;16.02;;
51288;SDS011;37372;52.294;5.152;2022-09-24T06:50:46;23.73;;;13.65;;
51288;SDS011;37372;52.294;5.152;2022-09-24T06:53:12;26.02;;;14.27;;
51288;SDS011;37372;52.294;5.152;2022-09-24T06:55:38;29.98;;;16.02;;
51288;SDS011;37372;52.294;5.152;2022-09-24T06:58:05;27.08;;;14.70;;
51288;SDS011;37372;52.294;5.152;2022-09-24T07:00:35;28.50;;;15.27;;
51288;SDS011;37372;52.294;5.152;2022-09-24T07:03:02;23.35;;;13.98;;
51288;SDS011;37372;52.294;5.152;2022-09-24T07:05:29;29.27;;;15.00;;
51288;SDS011;37372;52.294;5.152;2022-09-24T07:07:54;29.58;;;15.48;;
51288;SDS011;37372;52.294;5.152;2022-09-24T07:10:20;25.98;;;14.05;;
51288;SDS011;37372;52.294;5.152;2022-09-24T07:12:48;27.23;;;14.50;;
51288;SDS011;37372;52.294;5.152;2022-09-24T07:15:14;25.35;;;13.80;;
51288;SDS011;37372;52.294;5.152;2022-09-24T07:17:39;23.67;;;13.00;;
51288;SDS011;37372;52.294;5.152;2022-09-24T07:20:05;24.38;;;12.82;;
51288;SDS011;37372;52.294;5.152;2022-09-24T07:22:31;22.92;;;13.25;;
51288;SDS011;37372;52.294;5.152;2022-09-24T07:24:56;14.50;;;7.18;;
51288;SDS011;37372;52.294;5.152;2022-09-24T07:27:21;15.13;;;9.15;;
51288;SDS011;37372;52.294;5.152;2022-09-24T07:29:47;11.57;;;3.90;;
51288;SDS011;37372;52.294;5.152;2022-09-24T07:32:14;12.50;;;2.95;;
51288;SDS011;37372;52.294;5.152;2022-09-24T07:34:40;10.65;;;3.25;;
51288;SDS011;37372;52.294;5.152;2022-09-24T07:37:06;9.73;;;3.20;;
51288;SDS011;37372;52.294;5.152;2022-09-24T07:39:31;9.30;;;4.70;;
51288;SDS011;37372;52.294;5.152;2022-09-24T07:41:57;10.32;;;4.40;;
51288;SDS011;37372;52.294;5.152;2022-09-24T07:44:23;15.05;;;6.93;;
51288;SDS011;37372;52.294;5.152;2022-09-24T07:46:49;16.77;;;7.72;;
51288;SDS011;37372;52.294;5.152;2022-09-24T07:49:14;13.80;;;7.10;;
51288;SDS011;37372;52.294;5.152;2022-09-24T07:51:40;13.30;;;8.05;;
51288;SDS011;37372;52.294;5.152;2022-09-24T07:54:06;17.15;;;8.18;;
51288;SDS011;37372;52.294;5.152;2022-09-24T07:56:32;14.63;;;7.60;;
51288;SDS011;37372;52.294;5.152;2022-09-24T07:58:58;15.10;;;7.57;;
51288;SDS011;37372;52.294;5.152;2022-09-24T08:01:23;11.27;;;5.65;;
51288;SDS011;37372;52.294;5.152;2022-09-24T08:03:49;13.90;;;5.38;;
51288;SDS011;37372;52.294;5.152;2022-09-24T08:06:16;7.35;;;3.35;;
51288;SDS011;37372;52.294;5.152;2022-09-24T08:08:42;7.65;;;4.15;;
51288;SDS011;37372;52.294;5.152;2022-09-24T08:11:08;6.38;;;3.55;;
51288;SDS011;37372;52.294;5.152;2022-09-24T08:13:36;11.35;;;3.78;;
51288;SDS011;37372;52.294;5.152;2022-09-24T08:16:02;6.93;;;2.95;;
51288;SDS011;37372;52.294;5.152;2022-09-24T08:18:29;6.00;;;2.58;;
51288;SDS011;37372;52.294;5.152;2022-09-24T08:20:56;10.20;;;2.58;;
51288;SDS011;37372;52.294;5.152;2022-09-24T08:23:22;8.65;;;2.92;;
51288;SDS011;37372;52.294;5.152;2022-09-24T08:25:47;9.45;;;1.63;;
51288;SDS011;37372;52.294;5.152;2022-09-24T08:28:13;4.30;;;1.63;;
51288;SDS011;37372;52.294;5.152;2022-09-24T08:30:41;9.18;;;2.00;;
51288;SDS011;37372;52.294;5.152;2022-09-24T08:33:08;10.10;;;2.05;;
51288;SDS011;37372;52.294;5.152;2022-09-24T08:35:34;9.55;;;2.17;;
51288;SDS011;37372;52.294;5.152;2022-09-24T08:38:01;6.35;;;1.30;;
51288;SDS011;37372;52.294;5.152;2022-09-24T08:40:28;8.57;;;1.55;;
51288;SDS011;37372;52.294;5.152;2022-09-24T08:45:42;9.38;;;1.70;;
51288;SDS011;37372;52.294;5.152;2022-09-24T08:48:35;9.70;;;2.75;;
51288;SDS011;37372;52.294;5.152;2022-09-24T08:51:05;5.93;;;1.17;;
51288;SDS011;37372;52.294;5.152;2022-09-24T08:56:10;17.90;;;1.73;;
51288;SDS011;37372;52.294;5.152;2022-09-24T09:03:44;3.50;;;1.23;;
51288;SDS011;37372;52.294;5.152;2022-09-24T09:09:22;18.85;;;1.50;;
51288;SDS011;37372;52.294;5.152;2022-09-24T09:11:50;9.90;;;1.40;;
51288;SDS011;37372;52.294;5.152;2022-09-24T09:19:54;7.63;;;1.60;;
51288;SDS011;37372;52.294;5.152;2022-09-24T09:22:23;12.68;;;2.40;;
51288;SDS011;37372;52.294;5.152;2022-09-24T09:24:53;6.57;;;1.40;;
51288;SDS011;37372;52.294;5.152;2022-09-24T09:27:24;8.43;;;1.50;;
51288;SDS011;37372;52.294;5.152;2022-09-24T09:29:55;10.43;;;1.80;;
51288;SDS011;37372;52.294;5.152;2022-09-24T09:38:26;11.70;;;1.80;;
51288;SDS011;37372;52.294;5.152;2022-09-24T09:43:45;7.35;;;1.42;;
51288;SDS011;37372;52.294;5.152;2022-09-24T09:46:19;7.55;;;1.42;;
51288;SDS011;37372;52.294;5.152;2022-09-24T09:48:52;13.65;;;1.52;;
51288;SDS011;37372;52.294;5.152;2022-09-24T09:51:24;8.55;;;1.60;;
51288;SDS011;37372;52.294;5.152;2022-09-24T09:54:00;9.52;;;1.40;;
51288;SDS011;37372;52.294;5.152;2022-09-24T09:56:31;6.65;;;1.50;;
51288;SDS011;37372;52.294;5.152;2022-09-24T09:59:21;7.53;;;2.65;;
51288;SDS011;37372;52.294;5.152;2022-09-24T10:01:48;11.93;;;2.33;;
51288;SDS011;37372;52.294;5.152;2022-09-24T10:07:03;5.70;;;1.23;;
51288;SDS011;37372;52.294;5.152;2022-09-24T10:09:34;11.02;;;2.05;;
51288;SDS011;37372;52.294;5.152;2022-09-24T10:14:56;12.10;;;1.63;;
51288;SDS011;37372;52.294;5.152;2022-09-24T10:17:25;12.73;;;1.50;;
51288;SDS011;37372;52.294;5.152;2022-09-24T10:19:54;7.30;;;1.50;;
51288;SDS011;37372;52.294;5.152;2022-09-24T10:22:23;7.20;;;1.50;;
51288;SDS011;37372;52.294;5.152;2022-09-24T10:24:51;11.23;;;1.75;;
51288;SDS011;37372;52.294;5.152;2022-09-24T10:27:28;10.35;;;1.63;;
51288;SDS011;37372;52.294;5.152;2022-09-24T10:29:56;15.48;;;2.05;;
51288;SDS011;37372;52.294;5.152;2022-09-24T10:32:41;12.25;;;2.15;;
51288;SDS011;37372;52.294;5.152;2022-09-24T10:35:20;7.70;;;2.05;;
51288;SDS011;37372;52.294;5.152;2022-09-24T10:37:59;7.70;;;2.08;;
51288;SDS011;37372;52.294;5.152;2022-09-24T10:40:30;8.30;;;1.55;;
51288;SDS011;37372;52.294;5.152;2022-09-24T10:43:04;8.82;;;1.75;;
51288;SDS011;37372;52.294;5.152;2022-09-24T10:48:25;10.40;;;1.75;;
51288;SDS011;37372;52.294;5.152;2022-09-24T10:56:37;8.90;;;1.88;;
51288;SDS011;37372;52.294;5.152;2022-09-24T11:14:49;10.05;;;1.77;;
51288;SDS011;37372;52.294;5.152;2022-09-24T11:20:03;9.25;;;1.90;;
51288;SDS011;37372;52.294;5.152;2022-09-24T11:22:52;11.32;;;2.70;;
51288;SDS011;37372;52.294;5.152;2022-09-24T11:39:29;9.85;;;1.45;;
51288;SDS011;37372;52.294;5.152;2022-09-24T11:42:24;8.15;;;1.60;;
51288;SDS011;37372;52.294;5.152;2022-09-24T11:47:34;3.97;;;1.30;;
51288;SDS011;37372;52.294;5.152;2022-09-24T11:50:16;5.38;;;1.10;;
51288;SDS011;37372;52.294;5.152;2022-09-24T11:52:45;11.82;;;1.00;;
51288;SDS011;37372;52.294;5.152;2022-09-24T11:55:36;9.23;;;1.38;;
51288;SDS011;37372;52.294;5.152;2022-09-24T12:00:38;5.70;;;1.17;;
51288;SDS011;37372;52.294;5.152;2022-09-24T12:03:16;6.57;;;1.30;;
51288;SDS011;37372;52.294;5.152;2022-09-24T12:06:10;6.35;;;1.10;;
51288;SDS011;37372;52.294;5.152;2022-09-24T12:09:03;6.78;;;1.10;;
51288;SDS011;37372;52.294;5.152;2022-09-24T12:11:38;7.23;;;1.23;;
51288;SDS011;37372;52.294;5.152;2022-09-24T12:14:18;9.93;;;1.42;;
51288;SDS011;37372;52.294;5.152;2022-09-24T12:16:50;8.50;;;2.40;;
51288;SDS011;37372;52.294;5.152;2022-09-24T12:19:21;9.32;;;1.60;;
51288;SDS011;37372;52.294;5.152;2022-09-24T12:21:51;10.90;;;1.58;;
51288;SDS011;37372;52.294;5.152;2022-09-24T12:24:22;10.13;;;1.00;;
51288;SDS011;37372;52.294;5.152;2022-09-24T12:26:53;5.00;;;0.90;;
51288;SDS011;37372;52.294;5.152;2022-09-24T12:29:28;8.38;;;1.20;;
51288;SDS011;37372;52.294;5.152;2022-09-24T12:32:20;10.45;;;1.10;;
51288;SDS011;37372;52.294;5.152;2022-09-24T12:37:49;8.18;;;1.20;;
51288;SDS011;37372;52.294;5.152;2022-09-24T12:40:42;8.60;;;1.40;;
51288;SDS011;37372;52.294;5.152;2022-09-24T12:46:02;7.90;;;1.48;;
51288;SDS011;37372;52.294;5.152;2022-09-24T12:48:30;5.65;;;1.08;;
51288;SDS011;37372;52.294;5.152;2022-09-24T12:51:00;7.05;;;1.40;;
51288;SDS011;37372;52.294;5.152;2022-09-24T12:53:34;7.78;;;1.23;;
51288;SDS011;37372;52.294;5.152;2022-09-24T12:56:02;9.52;;;1.33;;
51288;SDS011;37372;52.294;5.152;2022-09-24T12:58:35;7.13;;;1.90;;
51288;SDS011;37372;52.294;5.152;2022-09-24T13:04:03;9.00;;;2.08;;
51288;SDS011;37372;52.294;5.152;2022-09-24T13:06:34;12.77;;;1.63;;
51288;SDS011;37372;52.294;5.152;2022-09-24T13:09:02;8.63;;;1.65;;
51288;SDS011;37372;52.294;5.152;2022-09-24T13:11:46;7.25;;;0.90;;
51288;SDS011;37372;52.294;5.152;2022-09-24T13:16:38;6.10;;;0.98;;
51288;SDS011;37372;52.294;5.152;2022-09-24T13:19:06;11.57;;;0.88;;
51288;SDS011;37372;52.294;5.152;2022-09-24T13:22:02;7.72;;;1.40;;
51288;SDS011;37372;52.294;5.152;2022-09-24T13:24:43;6.40;;;1.00;;
51288;SDS011;37372;52.294;5.152;2022-09-24T13:29:47;7.57;;;0.90;;
51288;SDS011;37372;52.294;5.152;2022-09-24T13:32:24;9.30;;;1.55;;
51288;SDS011;37372;52.294;5.152;2022-09-24T13:34:51;5.43;;;0.80;;
51288;SDS011;37372;52.294;5.152;2022-09-24T13:37:21;5.68;;;1.13;;
51288;SDS011;37372;52.294;5.152;2022-09-24T13:40:02;5.65;;;1.05;;
51288;SDS011;37372;52.294;5.152;2022-09-24T13:43:39;10.57;;;1.92;;
51288;SDS011;37372;52.294;5.152;2022-09-24T13:45:40;6.60;;;1.05;;
51288;SDS011;37372;52.294;5.152;2022-09-24T13:48:24;10.70;;;1.30;;
51288;SDS011;37372;52.294;5.152;2022-09-24T13:50:58;4.65;;;1.35;;
51288;SDS011;37372;52.294;5.152;2022-09-24T13:56:17;3.85;;;0.68;;
51288;SDS011;37372;52.294;5.152;2022-09-24T13:58:43;7.68;;;1.67;;
51288;SDS011;37372;52.294;5.152;2022-09-24T14:03:52;7.80;;;1.13;;
51288;SDS011;37372;52.294;5.152;2022-09-24T14:06:21;7.50;;;0.82;;
51288;SDS011;37372;52.294;5.152;2022-09-24T14:11:57;8.00;;;1.60;;
51288;SDS011;37372;52.294;5.152;2022-09-24T14:14:25;4.35;;;0.82;;
51288;SDS011;37372;52.294;5.152;2022-09-24T14:16:52;7.80;;;0.85;;
51288;SDS011;37372;52.294;5.152;2022-09-24T14:19:21;4.78;;;0.57;;
51288;SDS011;37372;52.294;5.152;2022-09-24T14:21:51;11.73;;;1.23;;
51288;SDS011;37372;52.294;5.152;2022-09-24T14:24:21;4.57;;;0.85;;
51288;SDS011;37372;52.294;5.152;2022-09-24T14:32:41;8.17;;;1.30;;
51288;SDS011;37372;52.294;5.152;2022-09-24T14:37:56;7.25;;;1.10;;
51288;SDS011;37372;52.294;5.152;2022-09-24T14:40:28;8.65;;;1.05;;
51288;SDS011;37372;52.294;5.152;2022-09-24T14:42:55;7.00;;;1.13;;
51288;SDS011;37372;52.294;5.152;2022-09-24T14:45:25;4.32;;;0.90;;
51288;SDS011;37372;52.294;5.152;2022-09-24T14:48:00;5.78;;;0.82;;
51288;SDS011;37372;52.294;5.152;2022-09-24T14:50:40;8.20;;;1.30;;
51288;SDS011;37372;52.294;5.152;2022-09-24T14:56:16;3.47;;;0.80;;
51288;SDS011;37372;52.294;5.152;2022-09-24T14:58:50;2.78;;;0.60;;
51288;SDS011;37372;52.294;5.152;2022-09-24T15:01:17;5.63;;;0.55;;
51288;SDS011;37372;52.294;5.152;2022-09-24T15:03:55;7.93;;;1.00;;
51288;SDS011;37372;52.294;5.152;2022-09-24T15:06:28;10.60;;;1.23;;
51288;SDS011;37372;52.294;5.152;2022-09-24T15:11:26;6.75;;;2.45;;
51288;SDS011;37372;52.294;5.152;2022-09-24T15:14:36;2.72;;;0.52;;
51288;SDS011;37372;52.294;5.152;2022-09-24T15:16:50;6.32;;;0.95;;
51288;SDS011;37372;52.294;5.152;2022-09-24T15:21:46;5.60;;;0.90;;
51288;SDS011;37372;52.294;5.152;2022-09-24T15:24:16;9.27;;;1.35;;
51288;SDS011;37372;52.294;5.152;2022-09-24T15:26:45;5.10;;;0.80;;
51288;SDS011;37372;52.294;5.152;2022-09-24T15:29:19;5.65;;;1.08;;
51288;SDS011;37372;52.294;5.152;2022-09-24T15:31:48;4.53;;;0.70;;
51288;SDS011;37372;52.294;5.152;2022-09-24T15:34:14;4.38;;;0.80;;
51288;SDS011;37372;52.294;5.152;2022-09-24T15:36:40;3.85;;;0.88;;
51288;SDS011;37372;52.294;5.152;2022-09-24T15:39:05;4.18;;;0.95;;
51288;SDS011;37372;52.294;5.152;2022-09-24T15:41:31;5.47;;;0.50;;
51288;SDS011;37372;52.294;5.152;2022-09-24T15:43:57;4.05;;;0.63;;
51288;SDS011;37372;52.294;5.152;2022-09-24T15:46:23;6.38;;;0.73;;
51288;SDS011;37372;52.294;5.152;2022-09-24T15:48:50;5.45;;;0.73;;
51288;SDS011;37372;52.294;5.152;2022-09-24T15:51:15;4.25;;;0.82;;
51288;SDS011;37372;52.294;5.152;2022-09-24T15:53:44;8.98;;;1.17;;
51288;SDS011;37372;52.294;5.152;2022-09-24T15:56:10;6.25;;;0.77;;
51288;SDS011;37372;52.294;5.152;2022-09-24T15:58:35;4.82;;;1.65;;
51288;SDS011;37372;52.294;5.152;2022-09-24T16:01:01;7.43;;;0.63;;
51288;SDS011;37372;52.294;5.152;2022-09-24T16:03:27;7.53;;;1.15;;
51288;SDS011;37372;52.294;5.152;2022-09-24T16:05:55;4.97;;;0.75;;
51288;SDS011;37372;52.294;5.152;2022-09-24T16:08:22;4.90;;;0.90;;
51288;SDS011;37372;52.294;5.152;2022-09-24T16:10:47;2.90;;;0.65;;
51288;SDS011;37372;52.294;5.152;2022-09-24T16:13:13;5.97;;;0.90;;
51288;SDS011;37372;52.294;5.152;2022-09-24T16:15:40;5.20;;;0.70;;
51288;SDS011;37372;52.294;5.152;2022-09-24T16:18:06;10.05;;;0.98;;
51288;SDS011;37372;52.294;5.152;2022-09-24T16:20:36;4.97;;;0.60;;
51288;SDS011;37372;52.294;5.152;2022-09-24T16:23:03;6.22;;;0.82;;
51288;SDS011;37372;52.294;5.152;2022-09-24T16:25:29;2.75;;;0.60;;
51288;SDS011;37372;52.294;5.152;2022-09-24T16:27:54;6.95;;;1.30;;
51288;SDS011;37372;52.294;5.152;2022-09-24T16:30:21;3.60;;;1.00;;
51288;SDS011;37372;52.294;5.152;2022-09-24T16:32:47;2.70;;;0.60;;
51288;SDS011;37372;52.294;5.152;2022-09-24T16:35:13;4.28;;;0.55;;
51288;SDS011;37372;52.294;5.152;2022-09-24T16:37:39;5.63;;;1.00;;
51288;SDS011;37372;52.294;5.152;2022-09-24T16:40:05;5.07;;;0.88;;
51288;SDS011;37372;52.294;5.152;2022-09-24T16:42:31;3.47;;;1.10;;
51288;SDS011;37372;52.294;5.152;2022-09-24T16:44:58;6.90;;;1.38;;
51288;SDS011;37372;52.294;5.152;2022-09-24T16:47:23;4.97;;;1.10;;
51288;SDS011;37372;52.294;5.152;2022-09-24T16:49:49;7.63;;;1.75;;
51288;SDS011;37372;52.294;5.152;2022-09-24T16:52:14;3.25;;;1.00;;
51288;SDS011;37372;52.294;5.152;2022-09-24T16:54:40;3.03;;;0.77;;
51288;SDS011;37372;52.294;5.152;2022-09-24T16:57:05;7.45;;;1.13;;